sensor_id;sensor_type;location;lat;lon;timestamp;temperature;humidity
18934;DHT22;9599;53.706;10.384;2024-02-15T00:00:18;11.20;99.90
18934;DHT22;9599;53.706;10.384;2024-02-15T00:02:46;11.20;99.90
18934;DHT22;9599;53.706;10.384;2024-02-15T00:05:32;11.30;99.90
18934;DHT22;9599;53.706;10.384;2024-02-15T00:08:03;11.30;99.90
18934;DHT22;9599;53.706;10.384;2024-02-15T00:10:32;11.30;99.90
18934;DHT22;9599;53.706;10.384;2024-02-15T00:13:01;11.20;99.90
18934;DHT22;9599;53.706;10.384;2024-02-15T00:15:29;11.20;99.90
18934;DHT22;9599;53.706;10.384;2024-02-15T00:17:57;11.20;99.90
18934;DHT22;9599;53.706;10.384;2024-02-15T00:20:25;11.30;99.90
18934;DHT22;9599;53.706;10.384;2024-02-15T00:22:54;11.30;99.90
18934;DHT22;9599;53.706;10.384;2024-02-15T00:25:24;11.20;99.90
18934;DHT22;9599;53.706;10.384;2024-02-15T00:27:52;11.30;99.90
18934;DHT22;9599;53.706;10.384;2024-02-15T00:30:20;11.30;99.90
18934;DHT22;9599;53.706;10.384;2024-02-15T00:32:49;11.20;99.90
18934;DHT22;9599;53.706;10.384;2024-02-15T00:35:18;11.30;99.90
18934;DHT22;9599;53.706;10.384;2024-02-15T00:37:47;11.30;99.90
18934;DHT22;9599;53.706;10.384;2024-02-15T00:40:16;11.20;99.90
18934;DHT22;9599;53.706;10.384;2024-02-15T00:42:46;11.30;99.90
18934;DHT22;9599;53.706;10.384;2024-02-15T00:45:14;11.30;99.90
18934;DHT22;9599;53.706;10.384;2024-02-15T00:47:42;11.30;99.90
18934;DHT22;9599;53.706;10.384;2024-02-15T00:50:11;11.30;99.90
18934;DHT22;9599;53.706;10.384;2024-02-15T00:52:40;11.30;99.90
18934;DHT22;9599;53.706;10.384;2024-02-15T00:55:08;11.30;99.90
18934;DHT22;9599;53.706;10.384;2024-02-15T00:57:36;11.30;99.90
18934;DHT22;9599;53.706;10.384;2024-02-15T01:00:07;11.30;99.90
18934;DHT22;9599;53.706;10.384;2024-02-15T01:02:36;11.30;99.90
18934;DHT22;9599;53.706;10.384;2024-02-15T01:05:04;11.30;99.90
18934;DHT22;9599;53.706;10.384;2024-02-15T01:07:33;11.30;99.90
18934;DHT22;9599;53.706;10.384;2024-02-15T01:10:01;11.30;99.90
18934;DHT22;9599;53.706;10.384;2024-02-15T01:12:30;11.40;99.90
18934;DHT22;9599;53.706;10.384;2024-02-15T01:14:58;11.30;99.90
18934;DHT22;9599;53.706;10.384;2024-02-15T01:17:28;11.40;99.90
18934;DHT22;9599;53.706;10.384;2024-02-15T01:19:56;11.30;99.90
18934;DHT22;9599;53.706;10.384;2024-02-15T01:22:24;11.30;99.90
18934;DHT22;9599;53.706;10.384;2024-02-15T01:24:54;11.40;99.90
18934;DHT22;9599;53.706;10.384;2024-02-15T01:27:22;11.40;99.90
18934;DHT22;9599;53.706;10.384;2024-02-15T01:29:50;11.40;99.90
18934;DHT22;9599;53.706;10.384;2024-02-15T01:32:18;11.40;99.90
18934;DHT22;9599;53.706;10.384;2024-02-15T01:34:47;11.40;99.90
18934;DHT22;9599;53.706;10.384;2024-02-15T01:37:18;11.40;99.90
18934;DHT22;9599;53.706;10.384;2024-02-15T01:39:47;11.50;99.90
18934;DHT22;9599;53.706;10.384;2024-02-15T01:42:15;11.50;99.90
18934;DHT22;9599;53.706;10.384;2024-02-15T01:44:43;11.50;99.90
18934;DHT22;9599;53.706;10.384;2024-02-15T01:47:14;11.50;99.90
18934;DHT22;9599;53.706;10.384;2024-02-15T01:49:43;11.50;99.90
18934;DHT22;9599;53.706;10.384;2024-02-15T01:52:13;11.50;99.90
18934;DHT22;9599;53.706;10.384;2024-02-15T01:54:41;11.50;99.90
18934;DHT22;9599;53.706;10.384;2024-02-15T01:57:09;11.50;99.90
18934;DHT22;9599;53.706;10.384;2024-02-15T01:59:38;11.50;99.90
18934;DHT22;9599;53.706;10.384;2024-02-15T02:02:08;11.60;99.90
18934;DHT22;9599;53.706;10.384;2024-02-15T02:04:39;11.50;99.90
18934;DHT22;9599;53.706;10.384;2024-02-15T02:07:08;11.60;99.90
18934;DHT22;9599;53.706;10.384;2024-02-15T02:09:37;11.60;99.90
18934;DHT22;9599;53.706;10.384;2024-02-15T02:12:06;11.60;99.90
18934;DHT22;9599;53.706;10.384;2024-02-15T02:14:34;11.60;99.90
18934;DHT22;9599;53.706;10.384;2024-02-15T02:17:12;11.50;99.90
18934;DHT22;9599;53.706;10.384;2024-02-15T02:19:41;11.50;99.90
18934;DHT22;9599;53.706;10.384;2024-02-15T02:22:11;11.60;99.90
18934;DHT22;9599;53.706;10.384;2024-02-15T02:24:55;11.50;99.90
18934;DHT22;9599;53.706;10.384;2024-02-15T02:27:26;11.50;99.90
18934;DHT22;9599;53.706;10.384;2024-02-15T02:29:55;11.50;99.90
18934;DHT22;9599;53.706;10.384;2024-02-15T02:32:23;11.60;99.90
18934;DHT22;9599;53.706;10.384;2024-02-15T02:34:52;11.60;99.90
18934;DHT22;9599;53.706;10.384;2024-02-15T02:37:23;11.60;99.90
18934;DHT22;9599;53.706;10.384;2024-02-15T02:39:52;11.50;99.90
18934;DHT22;9599;53.706;10.384;2024-02-15T02:42:21;11.60;99.90
18934;DHT22;9599;53.706;10.384;2024-02-15T02:44:49;11.60;99.90
18934;DHT22;9599;53.706;10.384;2024-02-15T02:47:17;11.60;99.90
18934;DHT22;9599;53.706;10.384;2024-02-15T02:49:45;11.60;99.90
18934;DHT22;9599;53.706;10.384;2024-02-15T02:52:14;11.60;99.90
18934;DHT22;9599;53.706;10.384;2024-02-15T02:54:42;11.60;99.90
18934;DHT22;9599;53.706;10.384;2024-02-15T02:57:10;11.60;99.90
18934;DHT22;9599;53.706;10.384;2024-02-15T02:59:39;11.60;99.90
18934;DHT22;9599;53.706;10.384;2024-02-15T03:02:07;11.60;99.90
18934;DHT22;9599;53.706;10.384;2024-02-15T03:04:35;11.60;99.90
18934;DHT22;9599;53.706;10.384;2024-02-15T03:07:05;11.60;99.90
18934;DHT22;9599;53.706;10.384;2024-02-15T03:09:33;11.60;99.90
18934;DHT22;9599;53.706;10.384;2024-02-15T03:12:04;11.60;99.90
18934;DHT22;9599;53.706;10.384;2024-02-15T03:14:32;11.60;99.90
18934;DHT22;9599;53.706;10.384;2024-02-15T03:17:03;11.60;99.90
18934;DHT22;9599;53.706;10.384;2024-02-15T03:19:32;11.60;99.90
18934;DHT22;9599;53.706;10.384;2024-02-15T03:22:00;11.60;99.90
18934;DHT22;9599;53.706;10.384;2024-02-15T03:24:28;11.60;99.90
18934;DHT22;9599;53.706;10.384;2024-02-15T03:26:55;11.70;99.90
18934;DHT22;9599;53.706;10.384;2024-02-15T03:29:24;11.60;99.90
18934;DHT22;9599;53.706;10.384;2024-02-15T03:31:52;11.70;99.90
18934;DHT22;9599;53.706;10.384;2024-02-15T03:34:23;11.70;99.90
18934;DHT22;9599;53.706;10.384;2024-02-15T03:36:53;11.70;99.90
18934;DHT22;9599;53.706;10.384;2024-02-15T03:39:21;11.70;99.90
18934;DHT22;9599;53.706;10.384;2024-02-15T03:41:51;11.70;99.90
18934;DHT22;9599;53.706;10.384;2024-02-15T03:44:21;11.60;99.90
18934;DHT22;9599;53.706;10.384;2024-02-15T03:46:53;11.70;99.90
18934;DHT22;9599;53.706;10.384;2024-02-15T03:49:26;11.70;99.90
18934;DHT22;9599;53.706;10.384;2024-02-15T03:51:54;11.70;99.90
18934;DHT22;9599;53.706;10.384;2024-02-15T03:54:22;11.70;99.90
18934;DHT22;9599;53.706;10.384;2024-02-15T03:56:51;11.70;99.90
18934;DHT22;9599;53.706;10.384;2024-02-15T03:59:20;11.70;99.90
18934;DHT22;9599;53.706;10.384;2024-02-15T04:01:52;11.70;99.90
18934;DHT22;9599;53.706;10.384;2024-02-15T04:04:20;11.70;99.90
18934;DHT22;9599;53.706;10.384;2024-02-15T04:06:50;11.70;99.90
18934;DHT22;9599;53.706;10.384;2024-02-15T04:09:19;11.70;99.90
18934;DHT22;9599;53.706;10.384;2024-02-15T04:11:48;11.70;99.90
18934;DHT22;9599;53.706;10.384;2024-02-15T04:14:19;11.70;99.90
18934;DHT22;9599;53.706;10.384;2024-02-15T04:16:47;11.70;99.90
18934;DHT22;9599;53.706;10.384;2024-02-15T04:19:15;11.70;99.90
18934;DHT22;9599;53.706;10.384;2024-02-15T04:21:47;11.70;99.90
18934;DHT22;9599;53.706;10.384;2024-02-15T04:24:17;11.70;99.90
18934;DHT22;9599;53.706;10.384;2024-02-15T04:26:45;11.70;99.90
18934;DHT22;9599;53.706;10.384;2024-02-15T04:29:15;11.70;99.90
18934;DHT22;9599;53.706;10.384;2024-02-15T04:31:44;11.70;99.90
18934;DHT22;9599;53.706;10.384;2024-02-15T04:34:16;11.80;99.90
18934;DHT22;9599;53.706;10.384;2024-02-15T04:36:47;11.80;99.90
18934;DHT22;9599;53.706;10.384;2024-02-15T04:39:20;11.80;99.90
18934;DHT22;9599;53.706;10.384;2024-02-15T04:41:51;11.80;99.90
18934;DHT22;9599;53.706;10.384;2024-02-15T04:44:19;11.80;99.90
18934;DHT22;9599;53.706;10.384;2024-02-15T04:46:49;11.80;99.90
18934;DHT22;9599;53.706;10.384;2024-02-15T04:49:17;11.70;99.90
18934;DHT22;9599;53.706;10.384;2024-02-15T04:51:46;11.80;99.90
18934;DHT22;9599;53.706;10.384;2024-02-15T04:54:14;11.80;99.90
18934;DHT22;9599;53.706;10.384;2024-02-15T04:56:44;11.80;99.90
18934;DHT22;9599;53.706;10.384;2024-02-15T04:59:13;11.80;99.90
18934;DHT22;9599;53.706;10.384;2024-02-15T05:01:43;11.70;99.90
18934;DHT22;9599;53.706;10.384;2024-02-15T05:04:12;11.70;99.90
18934;DHT22;9599;53.706;10.384;2024-02-15T05:06:42;11.80;99.90
18934;DHT22;9599;53.706;10.384;2024-02-15T05:09:12;11.70;99.90
18934;DHT22;9599;53.706;10.384;2024-02-15T05:11:41;11.80;99.90
18934;DHT22;9599;53.706;10.384;2024-02-15T05:14:14;11.80;99.90
18934;DHT22;9599;53.706;10.384;2024-02-15T05:16:46;11.80;99.90
18934;DHT22;9599;53.706;10.384;2024-02-15T05:19:15;11.80;99.90
18934;DHT22;9599;53.706;10.384;2024-02-15T05:21:44;11.80;99.90
18934;DHT22;9599;53.706;10.384;2024-02-15T05:24:13;11.80;99.90
18934;DHT22;9599;53.706;10.384;2024-02-15T05:26:43;11.80;99.90
18934;DHT22;9599;53.706;10.384;2024-02-15T05:29:15;11.80;99.90
18934;DHT22;9599;53.706;10.384;2024-02-15T05:31:43;11.80;99.90
18934;DHT22;9599;53.706;10.384;2024-02-15T05:34:12;11.80;99.90
18934;DHT22;9599;53.706;10.384;2024-02-15T05:36:41;11.80;99.90
18934;DHT22;9599;53.706;10.384;2024-02-15T05:39:09;11.80;99.90
18934;DHT22;9599;53.706;10.384;2024-02-15T05:41:41;11.80;99.90
18934;DHT22;9599;53.706;10.384;2024-02-15T05:44:09;11.80;99.90
18934;DHT22;9599;53.706;10.384;2024-02-15T05:46:39;11.80;99.90
18934;DHT22;9599;53.706;10.384;2024-02-15T05:49:07;11.80;99.90
18934;DHT22;9599;53.706;10.384;2024-02-15T05:51:42;11.80;99.90
18934;DHT22;9599;53.706;10.384;2024-02-15T05:54:11;11.80;99.90
18934;DHT22;9599;53.706;10.384;2024-02-15T05:56:39;11.80;99.90
18934;DHT22;9599;53.706;10.384;2024-02-15T05:59:09;11.80;99.90
18934;DHT22;9599;53.706;10.384;2024-02-15T06:01:39;11.80;99.90
18934;DHT22;9599;53.706;10.384;2024-02-15T06:04:08;11.80;99.90
18934;DHT22;9599;53.706;10.384;2024-02-15T06:06:36;11.80;99.90
18934;DHT22;9599;53.706;10.384;2024-02-15T06:09:05;11.80;99.90
18934;DHT22;9599;53.706;10.384;2024-02-15T06:11:33;11.80;99.90
18934;DHT22;9599;53.706;10.384;2024-02-15T06:14:01;11.90;99.90
18934;DHT22;9599;53.706;10.384;2024-02-15T06:16:30;11.80;99.90
18934;DHT22;9599;53.706;10.384;2024-02-15T06:18:59;11.80;99.90
18934;DHT22;9599;53.706;10.384;2024-02-15T06:21:29;11.80;99.90
18934;DHT22;9599;53.706;10.384;2024-02-15T06:23:57;11.80;99.90
18934;DHT22;9599;53.706;10.384;2024-02-15T06:26:25;11.80;99.90
18934;DHT22;9599;53.706;10.384;2024-02-15T06:28:53;11.90;99.90
18934;DHT22;9599;53.706;10.384;2024-02-15T06:31:44;11.90;99.90
18934;DHT22;9599;53.706;10.384;2024-02-15T06:34:31;11.90;99.90
18934;DHT22;9599;53.706;10.384;2024-02-15T06:37:34;11.90;99.90
18934;DHT22;9599;53.706;10.384;2024-02-15T06:40:20;11.90;99.90
18934;DHT22;9599;53.706;10.384;2024-02-15T06:42:49;11.80;99.90
18934;DHT22;9599;53.706;10.384;2024-02-15T06:45:17;11.90;99.90
18934;DHT22;9599;53.706;10.384;2024-02-15T06:47:46;11.80;99.90
18934;DHT22;9599;53.706;10.384;2024-02-15T06:50:16;11.80;99.90
18934;DHT22;9599;53.706;10.384;2024-02-15T06:52:44;11.90;99.90
18934;DHT22;9599;53.706;10.384;2024-02-15T06:55:13;11.80;99.90
18934;DHT22;9599;53.706;10.384;2024-02-15T06:57:41;11.90;99.90
18934;DHT22;9599;53.706;10.384;2024-02-15T07:00:11;11.90;99.90
18934;DHT22;9599;53.706;10.384;2024-02-15T07:02:42;11.90;99.90
18934;DHT22;9599;53.706;10.384;2024-02-15T07:05:11;11.90;99.90
18934;DHT22;9599;53.706;10.384;2024-02-15T07:07:41;11.90;99.90
18934;DHT22;9599;53.706;10.384;2024-02-15T07:10:09;11.90;99.90
18934;DHT22;9599;53.706;10.384;2024-02-15T07:12:38;11.90;99.90
18934;DHT22;9599;53.706;10.384;2024-02-15T07:15:07;11.90;99.90
18934;DHT22;9599;53.706;10.384;2024-02-15T07:17:36;11.90;99.90
18934;DHT22;9599;53.706;10.384;2024-02-15T07:20:06;11.90;99.90
18934;DHT22;9599;53.706;10.384;2024-02-15T07:22:37;11.90;99.90
18934;DHT22;9599;53.706;10.384;2024-02-15T07:25:07;11.90;99.90
18934;DHT22;9599;53.706;10.384;2024-02-15T07:27:35;11.90;99.90
18934;DHT22;9599;53.706;10.384;2024-02-15T07:30:04;12.00;99.90
18934;DHT22;9599;53.706;10.384;2024-02-15T07:32:32;12.00;99.90
18934;DHT22;9599;53.706;10.384;2024-02-15T07:35:02;12.00;99.90
18934;DHT22;9599;53.706;10.384;2024-02-15T07:37:32;12.00;99.90
18934;DHT22;9599;53.706;10.384;2024-02-15T07:40:00;12.00;99.90
18934;DHT22;9599;53.706;10.384;2024-02-15T07:42:31;12.00;99.90
18934;DHT22;9599;53.706;10.384;2024-02-15T07:45:01;11.90;99.90
18934;DHT22;9599;53.706;10.384;2024-02-15T07:47:33;11.90;99.90
18934;DHT22;9599;53.706;10.384;2024-02-15T07:50:02;11.90;99.90
18934;DHT22;9599;53.706;10.384;2024-02-15T07:52:30;12.00;99.90
18934;DHT22;9599;53.706;10.384;2024-02-15T07:55:00;12.00;99.90
18934;DHT22;9599;53.706;10.384;2024-02-15T07:57:28;12.00;99.90
18934;DHT22;9599;53.706;10.384;2024-02-15T07:59:58;12.00;99.90
18934;DHT22;9599;53.706;10.384;2024-02-15T08:02:27;12.00;99.90
18934;DHT22;9599;53.706;10.384;2024-02-15T08:04:55;12.10;99.90
18934;DHT22;9599;53.706;10.384;2024-02-15T08:07:23;12.10;99.90
18934;DHT22;9599;53.706;10.384;2024-02-15T08:09:52;12.10;99.90
18934;DHT22;9599;53.706;10.384;2024-02-15T08:12:20;12.00;99.90
18934;DHT22;9599;53.706;10.384;2024-02-15T08:14:48;12.10;99.90
18934;DHT22;9599;53.706;10.384;2024-02-15T08:17:18;12.00;99.90
18934;DHT22;9599;53.706;10.384;2024-02-15T08:19:46;12.00;99.90
18934;DHT22;9599;53.706;10.384;2024-02-15T08:22:14;12.00;99.90
18934;DHT22;9599;53.706;10.384;2024-02-15T08:24:42;12.10;99.90
18934;DHT22;9599;53.706;10.384;2024-02-15T08:27:11;12.10;99.90
18934;DHT22;9599;53.706;10.384;2024-02-15T08:29:39;12.10;99.90
18934;DHT22;9599;53.706;10.384;2024-02-15T08:32:07;12.20;99.90
18934;DHT22;9599;53.706;10.384;2024-02-15T08:34:37;12.20;99.90
18934;DHT22;9599;53.706;10.384;2024-02-15T08:37:06;12.20;99.90
18934;DHT22;9599;53.706;10.384;2024-02-15T08:39:35;12.20;99.90
18934;DHT22;9599;53.706;10.384;2024-02-15T08:42:03;12.20;99.90
18934;DHT22;9599;53.706;10.384;2024-02-15T08:44:31;12.20;99.90
18934;DHT22;9599;53.706;10.384;2024-02-15T08:47:00;12.20;99.90
18934;DHT22;9599;53.706;10.384;2024-02-15T08:49:28;12.20;99.90
18934;DHT22;9599;53.706;10.384;2024-02-15T08:51:59;12.20;99.90
18934;DHT22;9599;53.706;10.384;2024-02-15T08:54:27;12.30;99.90
18934;DHT22;9599;53.706;10.384;2024-02-15T08:56:55;12.30;99.90
18934;DHT22;9599;53.706;10.384;2024-02-15T08:59:23;12.20;99.90
18934;DHT22;9599;53.706;10.384;2024-02-15T09:01:51;12.30;99.90
18934;DHT22;9599;53.706;10.384;2024-02-15T09:04:21;12.30;99.90
18934;DHT22;9599;53.706;10.384;2024-02-15T09:06:50;12.30;99.90
18934;DHT22;9599;53.706;10.384;2024-02-15T09:09:20;12.30;99.90
18934;DHT22;9599;53.706;10.384;2024-02-15T09:11:48;12.40;99.90
18934;DHT22;9599;53.706;10.384;2024-02-15T09:14:16;12.40;99.90
18934;DHT22;9599;53.706;10.384;2024-02-15T09:16:44;12.40;99.90
18934;DHT22;9599;53.706;10.384;2024-02-15T09:19:13;12.40;99.90
18934;DHT22;9599;53.706;10.384;2024-02-15T09:21:42;12.40;99.90
18934;DHT22;9599;53.706;10.384;2024-02-15T09:24:10;12.40;99.90
18934;DHT22;9599;53.706;10.384;2024-02-15T09:26:39;12.40;99.90
18934;DHT22;9599;53.706;10.384;2024-02-15T09:29:07;12.50;99.90
18934;DHT22;9599;53.706;10.384;2024-02-15T09:31:35;12.50;99.90
18934;DHT22;9599;53.706;10.384;2024-02-15T09:34:03;12.50;99.90
18934;DHT22;9599;53.706;10.384;2024-02-15T09:36:34;12.50;99.90
18934;DHT22;9599;53.706;10.384;2024-02-15T09:39:02;12.60;99.90
18934;DHT22;9599;53.706;10.384;2024-02-15T09:41:30;12.60;99.90
18934;DHT22;9599;53.706;10.384;2024-02-15T09:44:00;12.60;99.90
18934;DHT22;9599;53.706;10.384;2024-02-15T09:46:35;12.60;99.90
18934;DHT22;9599;53.706;10.384;2024-02-15T09:49:03;12.70;99.90
18934;DHT22;9599;53.706;10.384;2024-02-15T09:51:34;12.70;99.90
18934;DHT22;9599;53.706;10.384;2024-02-15T09:54:04;12.70;99.90
18934;DHT22;9599;53.706;10.384;2024-02-15T09:56:34;12.70;99.90
18934;DHT22;9599;53.706;10.384;2024-02-15T09:59:04;12.70;99.90
18934;DHT22;9599;53.706;10.384;2024-02-15T10:01:34;12.70;99.90
18934;DHT22;9599;53.706;10.384;2024-02-15T10:04:05;12.80;99.90
18934;DHT22;9599;53.706;10.384;2024-02-15T10:06:34;12.80;99.90
18934;DHT22;9599;53.706;10.384;2024-02-15T10:09:25;12.80;99.90
18934;DHT22;9599;53.706;10.384;2024-02-15T10:11:55;12.80;99.90
18934;DHT22;9599;53.706;10.384;2024-02-15T10:14:26;12.80;99.90
18934;DHT22;9599;53.706;10.384;2024-02-15T10:16:55;12.80;99.90
18934;DHT22;9599;53.706;10.384;2024-02-15T10:19:24;12.80;99.90
18934;DHT22;9599;53.706;10.384;2024-02-15T10:21:52;12.80;99.90
18934;DHT22;9599;53.706;10.384;2024-02-15T10:24:23;12.90;99.90
18934;DHT22;9599;53.706;10.384;2024-02-15T10:26:59;12.90;99.90
18934;DHT22;9599;53.706;10.384;2024-02-15T10:29:31;12.90;99.90
18934;DHT22;9599;53.706;10.384;2024-02-15T10:32:01;12.90;99.90
18934;DHT22;9599;53.706;10.384;2024-02-15T10:34:29;13.00;99.90
18934;DHT22;9599;53.706;10.384;2024-02-15T10:37:11;13.00;99.90
18934;DHT22;9599;53.706;10.384;2024-02-15T10:39:39;13.00;99.90
18934;DHT22;9599;53.706;10.384;2024-02-15T10:42:08;13.00;99.90
18934;DHT22;9599;53.706;10.384;2024-02-15T10:44:39;13.00;99.90
18934;DHT22;9599;53.706;10.384;2024-02-15T10:47:08;13.00;99.90
18934;DHT22;9599;53.706;10.384;2024-02-15T10:49:36;13.00;99.90
18934;DHT22;9599;53.706;10.384;2024-02-15T10:52:06;13.10;99.90
18934;DHT22;9599;53.706;10.384;2024-02-15T10:54:47;13.10;99.90
18934;DHT22;9599;53.706;10.384;2024-02-15T10:57:21;13.00;99.90
18934;DHT22;9599;53.706;10.384;2024-02-15T10:59:55;13.10;99.90
18934;DHT22;9599;53.706;10.384;2024-02-15T11:02:29;13.00;99.90
18934;DHT22;9599;53.706;10.384;2024-02-15T11:05:02;13.10;99.90
18934;DHT22;9599;53.706;10.384;2024-02-15T11:07:32;13.10;99.90
18934;DHT22;9599;53.706;10.384;2024-02-15T11:10:01;13.10;99.90
18934;DHT22;9599;53.706;10.384;2024-02-15T11:12:31;13.10;99.90
18934;DHT22;9599;53.706;10.384;2024-02-15T11:15:01;13.10;99.90
18934;DHT22;9599;53.706;10.384;2024-02-15T11:17:46;13.10;99.90
18934;DHT22;9599;53.706;10.384;2024-02-15T11:20:51;13.10;99.90
18934;DHT22;9599;53.706;10.384;2024-02-15T11:23:26;13.10;99.90
18934;DHT22;9599;53.706;10.384;2024-02-15T11:26:04;13.10;99.90
18934;DHT22;9599;53.706;10.384;2024-02-15T11:28:39;13.20;99.90
18934;DHT22;9599;53.706;10.384;2024-02-15T11:31:10;13.30;99.90
18934;DHT22;9599;53.706;10.384;2024-02-15T11:33:43;13.30;99.90
18934;DHT22;9599;53.706;10.384;2024-02-15T11:36:12;13.30;99.90
18934;DHT22;9599;53.706;10.384;2024-02-15T11:38:41;13.40;99.90
18934;DHT22;9599;53.706;10.384;2024-02-15T11:41:10;13.50;99.90
18934;DHT22;9599;53.706;10.384;2024-02-15T11:43:52;13.50;99.90
18934;DHT22;9599;53.706;10.384;2024-02-15T11:46:25;13.50;99.90
18934;DHT22;9599;53.706;10.384;2024-02-15T11:48:56;13.50;99.90
18934;DHT22;9599;53.706;10.384;2024-02-15T11:51:28;13.40;99.90
18934;DHT22;9599;53.706;10.384;2024-02-15T11:54:02;13.50;99.90
18934;DHT22;9599;53.706;10.384;2024-02-15T11:56:49;13.50;99.90
18934;DHT22;9599;53.706;10.384;2024-02-15T11:59:21;13.50;99.90
18934;DHT22;9599;53.706;10.384;2024-02-15T12:02:00;13.50;99.90
18934;DHT22;9599;53.706;10.384;2024-02-15T12:04:48;13.40;99.90
18934;DHT22;9599;53.706;10.384;2024-02-15T12:07:34;13.40;99.90
18934;DHT22;9599;53.706;10.384;2024-02-15T12:10:19;13.40;99.90
18934;DHT22;9599;53.706;10.384;2024-02-15T12:13:08;13.40;99.90
18934;DHT22;9599;53.706;10.384;2024-02-15T12:15:58;13.40;99.90
18934;DHT22;9599;53.706;10.384;2024-02-15T12:18:46;13.40;99.90
18934;DHT22;9599;53.706;10.384;2024-02-15T12:21:24;13.40;99.90
18934;DHT22;9599;53.706;10.384;2024-02-15T12:23:53;13.40;99.90
18934;DHT22;9599;53.706;10.384;2024-02-15T12:26:22;13.40;99.90
18934;DHT22;9599;53.706;10.384;2024-02-15T12:28:51;13.30;99.90
18934;DHT22;9599;53.706;10.384;2024-02-15T12:31:21;13.30;99.90
18934;DHT22;9599;53.706;10.384;2024-02-15T12:34:01;13.30;99.90
18934;DHT22;9599;53.706;10.384;2024-02-15T12:36:35;13.30;99.90
18934;DHT22;9599;53.706;10.384;2024-02-15T12:39:06;13.30;99.90
18934;DHT22;9599;53.706;10.384;2024-02-15T12:41:39;13.30;99.90
18934;DHT22;9599;53.706;10.384;2024-02-15T12:44:08;13.30;99.90
18934;DHT22;9599;53.706;10.384;2024-02-15T12:46:37;13.30;99.90
18934;DHT22;9599;53.706;10.384;2024-02-15T12:49:27;13.40;99.90
18934;DHT22;9599;53.706;10.384;2024-02-15T12:52:35;13.40;99.90
18934;DHT22;9599;53.706;10.384;2024-02-15T12:55:10;13.40;99.90
18934;DHT22;9599;53.706;10.384;2024-02-15T12:57:38;13.40;99.90
18934;DHT22;9599;53.706;10.384;2024-02-15T13:00:10;13.30;99.90
18934;DHT22;9599;53.706;10.384;2024-02-15T13:02:46;13.30;99.90
18934;DHT22;9599;53.706;10.384;2024-02-15T13:05:18;13.30;99.90
18934;DHT22;9599;53.706;10.384;2024-02-15T13:07:46;13.20;99.90
18934;DHT22;9599;53.706;10.384;2024-02-15T13:10:14;13.20;99.90
18934;DHT22;9599;53.706;10.384;2024-02-15T13:12:43;13.20;99.90
18934;DHT22;9599;53.706;10.384;2024-02-15T13:15:13;13.20;99.90
18934;DHT22;9599;53.706;10.384;2024-02-15T13:17:44;13.20;99.90
18934;DHT22;9599;53.706;10.384;2024-02-15T13:20:13;13.20;99.90
18934;DHT22;9599;53.706;10.384;2024-02-15T13:22:42;13.20;99.90
18934;DHT22;9599;53.706;10.384;2024-02-15T13:25:11;13.20;99.90
18934;DHT22;9599;53.706;10.384;2024-02-15T13:27:40;13.20;99.90
18934;DHT22;9599;53.706;10.384;2024-02-15T13:30:08;13.20;99.90
18934;DHT22;9599;53.706;10.384;2024-02-15T13:32:38;13.20;99.90
18934;DHT22;9599;53.706;10.384;2024-02-15T13:35:09;13.10;99.90
18934;DHT22;9599;53.706;10.384;2024-02-15T13:37:42;13.10;99.90
18934;DHT22;9599;53.706;10.384;2024-02-15T13:40:11;13.10;99.90
18934;DHT22;9599;53.706;10.384;2024-02-15T13:42:43;13.10;99.90
18934;DHT22;9599;53.706;10.384;2024-02-15T13:45:16;13.10;99.90
18934;DHT22;9599;53.706;10.384;2024-02-15T13:47:45;13.10;99.90
18934;DHT22;9599;53.706;10.384;2024-02-15T13:50:14;13.10;99.90
18934;DHT22;9599;53.706;10.384;2024-02-15T13:52:44;13.10;99.90
18934;DHT22;9599;53.706;10.384;2024-02-15T13:55:13;13.10;99.90
18934;DHT22;9599;53.706;10.384;2024-02-15T13:57:43;13.10;99.90
18934;DHT22;9599;53.706;10.384;2024-02-15T14:00:12;13.10;99.90
18934;DHT22;9599;53.706;10.384;2024-02-15T14:02:48;13.10;99.90
18934;DHT22;9599;53.706;10.384;2024-02-15T14:05:17;13.10;99.90
18934;DHT22;9599;53.706;10.384;2024-02-15T14:07:49;13.10;99.90
18934;DHT22;9599;53.706;10.384;2024-02-15T14:10:16;13.00;99.90
18934;DHT22;9599;53.706;10.384;2024-02-15T14:12:46;13.00;99.90
18934;DHT22;9599;53.706;10.384;2024-02-15T14:15:15;13.00;99.90
18934;DHT22;9599;53.706;10.384;2024-02-15T14:17:45;13.00;99.90
18934;DHT22;9599;53.706;10.384;2024-02-15T14:20:13;13.00;99.90
18934;DHT22;9599;53.706;10.384;2024-02-15T14:22:45;12.90;99.90
18934;DHT22;9599;53.706;10.384;2024-02-15T14:25:18;12.90;99.90
18934;DHT22;9599;53.706;10.384;2024-02-15T14:27:47;12.90;99.90
18934;DHT22;9599;53.706;10.384;2024-02-15T14:30:15;12.90;99.90
18934;DHT22;9599;53.706;10.384;2024-02-15T14:33:01;12.90;99.90
18934;DHT22;9599;53.706;10.384;2024-02-15T14:35:32;12.80;99.90
18934;DHT22;9599;53.706;10.384;2024-02-15T14:38:03;12.80;99.90
18934;DHT22;9599;53.706;10.384;2024-02-15T14:40:36;12.80;99.90
18934;DHT22;9599;53.706;10.384;2024-02-15T14:43:08;12.80;99.90
18934;DHT22;9599;53.706;10.384;2024-02-15T14:45:44;12.80;99.90
18934;DHT22;9599;53.706;10.384;2024-02-15T14:48:12;12.90;99.90
18934;DHT22;9599;53.706;10.384;2024-02-15T14:50:41;12.80;99.90
18934;DHT22;9599;53.706;10.384;2024-02-15T14:53:09;12.80;99.90
18934;DHT22;9599;53.706;10.384;2024-02-15T14:55:39;12.90;99.90
18934;DHT22;9599;53.706;10.384;2024-02-15T14:58:10;12.80;99.90
18934;DHT22;9599;53.706;10.384;2024-02-15T15:00:40;12.80;99.90
18934;DHT22;9599;53.706;10.384;2024-02-15T15:03:11;12.80;99.90
18934;DHT22;9599;53.706;10.384;2024-02-15T15:05:41;12.80;99.90
18934;DHT22;9599;53.706;10.384;2024-02-15T15:08:27;12.90;99.90
18934;DHT22;9599;53.706;10.384;2024-02-15T15:11:14;12.80;99.90
18934;DHT22;9599;53.706;10.384;2024-02-15T15:13:59;12.80;99.90
18934;DHT22;9599;53.706;10.384;2024-02-15T15:16:29;12.90;99.90
18934;DHT22;9599;53.706;10.384;2024-02-15T15:18:57;12.80;99.90
18934;DHT22;9599;53.706;10.384;2024-02-15T15:21:26;12.80;99.90
18934;DHT22;9599;53.706;10.384;2024-02-15T15:23:55;12.80;99.90
18934;DHT22;9599;53.706;10.384;2024-02-15T15:26:25;12.80;99.90
18934;DHT22;9599;53.706;10.384;2024-02-15T15:28:53;12.80;99.90
18934;DHT22;9599;53.706;10.384;2024-02-15T15:31:24;12.80;99.90
18934;DHT22;9599;53.706;10.384;2024-02-15T15:33:52;12.80;99.90
18934;DHT22;9599;53.706;10.384;2024-02-15T15:36:22;12.80;99.90
18934;DHT22;9599;53.706;10.384;2024-02-15T15:38:50;12.80;99.90
18934;DHT22;9599;53.706;10.384;2024-02-15T15:41:19;12.80;99.90
18934;DHT22;9599;53.706;10.384;2024-02-15T15:43:51;12.80;99.90
18934;DHT22;9599;53.706;10.384;2024-02-15T15:46:19;12.70;99.90
18934;DHT22;9599;53.706;10.384;2024-02-15T15:48:47;12.80;99.90
18934;DHT22;9599;53.706;10.384;2024-02-15T15:51:15;12.80;99.90